Gembloux, Belgium
Current Conditions -  °F | °C
As of 7:20 PM on Thursday 27 Nov 2014 (Local Time) from EBCI Reporting Station
Broken Clouds Broken Clouds  
Wind Chill: 45°   Ceiling: 800
Heat Index: 48°   Visibility: 6mi
Dew Point: 46°   Wind: 8mph
Humidity: 93%   Direction: 140°SE
Pressure: 29.65"   Gusts: NA
Location:  50.56°N, 4.7°E
Report Text: EBCI 271820Z 14007KT 110V170 9999 BKN008 BKN013 09/08 Q1004 NOSIG
Loading
Personal Weather Stations






























Interactive Weather Map New forecast layout! Learn more

10-Day Weather Forecast

Advertisements
Track Severe Weather on mobile